Francisville, Kentucky
Current Conditions -  °F | °C
As of 7:52 PM on Thursday 27 Nov 2014 (Local Time) from KCVG Reporting Station
Overcast Overcast  
Wind Chill: 19°   Ceiling: 2300
Heat Index: 30°   Visibility: 9mi
Dew Point: 19°   Wind: 16mph
Humidity: 64%   Direction: 300°WNW
Pressure: 30.37"   Gusts: NA
Location:  39.0882°N, 84.7043°W
Report Text: KCVG 280052Z 30014KT 9SM BKN023 OVC027 M01/M07 A3037 RMK AO2 SNE20 SLP292 P0000 T10111072
Loading
Personal Weather Stations






























Interactive Weather Map New forecast layout! Learn more

10-Day Weather Forecast

Advertisements
Track Severe Weather on mobile